createdAt,value
2022-07-28T00:00:04.355Z,30.58
2022-07-28T00:00:34.416Z,30.60
2022-07-28T00:01:04.421Z,30.57
2022-07-28T00:01:34.543Z,30.58
2022-07-28T00:02:04.587Z,30.58
2022-07-28T00:02:34.659Z,30.58
2022-07-28T00:03:04.749Z,30.60
2022-07-28T00:03:34.781Z,30.60
2022-07-28T00:04:04.897Z,30.60
2022-07-28T00:04:34.897Z,30.60
2022-07-28T00:05:04.896Z,30.58
2022-07-28T00:05:35.012Z,30.60
2022-07-28T00:06:05.016Z,30.60
2022-07-28T00:06:35.072Z,30.58
2022-07-28T00:07:05.063Z,30.60
2022-07-28T00:07:35.064Z,30.58
2022-07-28T00:08:05.182Z,30.57
2022-07-28T00:08:35.177Z,30.61
2022-07-28T00:09:05.190Z,30.57
2022-07-28T00:09:35.219Z,30.60
2022-07-28T00:10:05.251Z,30.58
2022-07-28T00:10:35.288Z,30.56
2022-07-28T00:11:05.323Z,30.58
2022-07-28T00:11:35.358Z,30.57
2022-07-28T00:12:05.410Z,30.56
2022-07-28T00:12:35.442Z,30.58
2022-07-28T00:13:06.782Z,30.58
2022-07-28T00:13:35.525Z,30.58
2022-07-28T00:14:05.557Z,30.57
2022-07-28T00:14:35.589Z,30.57
2022-07-28T00:15:05.625Z,30.57
2022-07-28T00:15:35.658Z,30.58
2022-07-28T00:16:05.763Z,30.58
2022-07-28T00:16:35.834Z,30.58
2022-07-28T00:17:05.898Z,30.57
2022-07-28T00:17:35.929Z,30.57
2022-07-28T00:18:05.967Z,30.56
2022-07-28T00:18:35.993Z,30.56
2022-07-28T00:19:06.031Z,30.54
2022-07-28T00:19:36.058Z,30.57
2022-07-28T00:20:06.096Z,30.56
2022-07-28T00:20:36.129Z,30.57
2022-07-28T00:21:06.162Z,30.57
2022-07-28T00:21:36.202Z,30.56
2022-07-28T00:22:06.240Z,30.57
2022-07-28T00:22:36.265Z,30.56
2022-07-28T00:23:06.301Z,30.57
2022-07-28T00:23:39.479Z,30.57
2022-07-28T00:24:06.419Z,30.56
2022-07-28T00:24:36.450Z,30.54
2022-07-28T00:25:06.489Z,30.56
2022-07-28T00:25:36.509Z,30.60
2022-07-28T00:26:06.547Z,30.58
2022-07-28T00:26:36.583Z,30.57
2022-07-28T00:27:06.619Z,30.56
2022-07-28T00:27:36.712Z,30.56
2022-07-28T00:28:06.744Z,30.56
2022-07-28T00:28:36.773Z,30.54
2022-07-28T00:29:06.814Z,30.56
2022-07-28T00:29:42.548Z,30.57
2022-07-28T00:30:06.895Z,30.56
2022-07-28T00:30:36.966Z,30.54
2022-07-28T00:31:08.631Z,30.56
2022-07-28T00:31:37.194Z,30.54
2022-07-28T00:32:07.180Z,30.56
2022-07-28T00:32:37.121Z,30.54
2022-07-28T00:33:07.150Z,30.53
2022-07-28T00:33:37.184Z,30.51
2022-07-28T00:34:07.217Z,30.56
2022-07-28T00:34:37.248Z,30.53
2022-07-28T00:35:08.250Z,30.54
2022-07-28T00:35:37.417Z,30.54
2022-07-28T00:36:07.445Z,30.56
2022-07-28T00:36:37.543Z,30.56
2022-07-28T00:37:07.642Z,30.54
2022-07-28T00:37:39.793Z,30.54
2022-07-28T00:38:07.713Z,30.53
2022-07-28T00:38:37.726Z,30.54
2022-07-28T00:39:07.787Z,30.53
2022-07-28T00:39:37.816Z,30.57
2022-07-28T00:40:07.856Z,30.56
2022-07-28T00:40:37.884Z,30.56
2022-07-28T00:41:07.926Z,30.54
2022-07-28T00:41:37.962Z,30.56
2022-07-28T00:42:07.990Z,30.53
2022-07-28T00:42:38.028Z,30.54
2022-07-28T00:43:08.057Z,30.54
2022-07-28T00:43:38.086Z,30.56
2022-07-28T00:44:08.124Z,30.54
2022-07-28T00:44:38.154Z,30.54
2022-07-28T00:45:08.188Z,30.53
2022-07-28T00:45:38.221Z,30.50
2022-07-28T00:46:08.421Z,30.53
2022-07-28T00:46:38.435Z,30.54
2022-07-28T00:47:08.370Z,30.51
2022-07-28T00:47:38.401Z,30.54
2022-07-28T00:48:08.433Z,30.56
2022-07-28T00:48:38.499Z,30.53
2022-07-28T00:49:08.582Z,30.54
2022-07-28T00:49:38.618Z,30.53
2022-07-28T00:50:08.655Z,30.54
2022-07-28T00:50:38.689Z,30.51
2022-07-28T00:51:08.743Z,30.56
2022-07-28T00:51:38.778Z,30.54
2022-07-28T00:52:08.813Z,30.53
2022-07-28T00:52:38.846Z,30.53
2022-07-28T00:53:08.991Z,30.53
2022-07-28T00:53:38.869Z,30.51
2022-07-28T00:54:08.883Z,30.54
2022-07-28T00:54:38.920Z,30.53
2022-07-28T00:55:08.952Z,30.51
2022-07-28T00:56:03.443Z,30.53
2022-07-28T00:56:09.077Z,30.53
2022-07-28T00:56:39.111Z,30.50
2022-07-28T00:57:09.140Z,30.50
2022-07-28T00:57:39.181Z,30.51
2022-07-28T00:58:09.214Z,30.53
2022-07-28T00:58:39.247Z,30.51
2022-07-28T00:59:09.265Z,30.54
2022-07-28T00:59:39.259Z,30.51
2022-07-28T01:00:09.377Z,30.50
2022-07-28T01:00:39.370Z,30.51
2022-07-28T01:01:09.421Z,30.48
2022-07-28T01:01:39.528Z,30.51
2022-07-28T01:02:09.570Z,30.50
2022-07-28T01:02:39.696Z,30.51
2022-07-28T01:03:09.686Z,30.51
2022-07-28T01:03:39.678Z,30.50
2022-07-28T01:04:09.678Z,30.50
2022-07-28T01:04:39.673Z,30.51
2022-07-28T01:05:09.670Z,30.51
2022-07-28T01:05:43.994Z,30.50
2022-07-28T01:06:09.785Z,30.48
2022-07-28T01:06:39.778Z,30.47
2022-07-28T01:07:09.774Z,30.51
2022-07-28T01:07:39.781Z,30.51
2022-07-28T01:08:09.770Z,30.50
2022-07-28T01:08:39.763Z,30.50
2022-07-28T01:09:09.785Z,30.51
2022-07-28T01:09:39.829Z,30.50
2022-07-28T01:10:09.864Z,30.48
2022-07-28T01:10:39.893Z,30.50
2022-07-28T01:11:10.077Z,30.48
2022-07-28T01:11:43.137Z,30.48
2022-07-28T01:12:10.214Z,30.48
2022-07-28T01:12:40.257Z,30.48
2022-07-28T01:13:10.296Z,30.48
2022-07-28T01:13:40.337Z,30.48
2022-07-28T01:14:10.436Z,30.48
2022-07-28T01:14:40.430Z,30.48
2022-07-28T01:15:10.460Z,30.47
2022-07-28T01:15:40.532Z,30.50
2022-07-28T01:16:10.657Z,30.48
2022-07-28T01:16:40.593Z,30.48
2022-07-28T01:17:10.632Z,30.47
2022-07-28T01:17:40.665Z,30.47
2022-07-28T01:18:10.701Z,30.48
2022-07-28T01:18:40.731Z,30.48
2022-07-28T01:19:10.773Z,30.47
2022-07-28T01:19:40.807Z,30.48
2022-07-28T01:20:10.837Z,30.48
2022-07-28T01:20:40.884Z,30.47
2022-07-28T01:21:10.915Z,30.47
2022-07-28T01:21:40.943Z,30.47
2022-07-28T01:22:10.983Z,30.47
2022-07-28T01:22:40.994Z,30.46
2022-07-28T01:23:11.021Z,30.48
2022-07-28T01:23:41.055Z,30.46
2022-07-28T01:24:11.310Z,30.46
2022-07-28T01:24:41.133Z,30.47
2022-07-28T01:25:11.171Z,30.46
2022-07-28T01:25:41.219Z,30.47
2022-07-28T01:26:11.258Z,30.48
2022-07-28T01:26:41.291Z,30.48
2022-07-28T01:27:11.329Z,30.47
2022-07-28T01:27:41.358Z,30.48
2022-07-28T01:28:11.390Z,30.44
2022-07-28T01:28:41.425Z,30.47
2022-07-28T01:29:11.455Z,30.47
2022-07-28T01:29:41.486Z,30.48
2022-07-28T01:30:11.522Z,30.46
2022-07-28T01:30:41.559Z,30.46
2022-07-28T01:31:11.673Z,30.46
2022-07-28T01:31:41.659Z,30.46
2022-07-28T01:32:11.606Z,30.48
2022-07-28T01:32:41.635Z,30.47
2022-07-28T01:33:11.673Z,30.47
2022-07-28T01:33:41.706Z,30.47
2022-07-28T01:34:12.135Z,30.46
2022-07-28T01:34:41.727Z,30.46
2022-07-28T01:35:11.761Z,30.46
2022-07-28T01:35:41.787Z,30.46
2022-07-28T01:36:11.836Z,30.44
2022-07-28T01:36:41.867Z,30.44
2022-07-28T01:37:11.900Z,30.47
2022-07-28T01:37:41.931Z,30.48
2022-07-28T01:38:11.969Z,30.47
2022-07-28T01:38:41.999Z,30.46
2022-07-28T01:39:12.032Z,30.48
2022-07-28T01:39:42.067Z,30.43
2022-07-28T01:40:12.097Z,30.46
2022-07-28T01:40:42.132Z,30.46
2022-07-28T01:41:12.173Z,30.46
2022-07-28T01:41:42.228Z,30.44
2022-07-28T01:42:12.341Z,30.43
2022-07-28T01:42:42.379Z,30.46
2022-07-28T01:43:13.448Z,30.44
2022-07-28T01:43:42.443Z,30.44
2022-07-28T01:44:12.846Z,30.44
2022-07-28T01:44:42.504Z,30.44
2022-07-28T01:45:12.539Z,30.46
2022-07-28T01:45:42.568Z,30.44
2022-07-28T01:46:12.696Z,30.44
2022-07-28T01:46:42.853Z,30.46
2022-07-28T01:47:12.810Z,30.44
2022-07-28T01:47:42.845Z,30.44
2022-07-28T01:48:12.875Z,30.43
2022-07-28T01:48:42.965Z,30.43
2022-07-28T01:49:13.069Z,30.41
2022-07-28T01:49:43.108Z,30.41
2022-07-28T01:50:13.144Z,30.43
2022-07-28T01:50:43.177Z,30.44
2022-07-28T01:51:13.214Z,30.43
2022-07-28T01:51:43.248Z,30.41
2022-07-28T01:52:13.278Z,30.43
2022-07-28T01:52:43.310Z,30.43
2022-07-28T01:53:13.339Z,30.43
2022-07-28T01:53:43.378Z,30.41
2022-07-28T01:54:13.819Z,30.41
2022-07-28T01:54:43.472Z,30.41
2022-07-28T01:55:13.515Z,30.40
2022-07-28T01:55:43.553Z,30.43
2022-07-28T01:56:13.578Z,30.40
2022-07-28T01:56:43.616Z,30.40
2022-07-28T01:57:13.651Z,30.43
2022-07-28T01:57:43.683Z,30.41
2022-07-28T01:58:13.722Z,30.40
2022-07-28T01:58:43.758Z,30.41
2022-07-28T01:59:13.760Z,30.41
2022-07-28T01:59:43.757Z,30.43
2022-07-28T02:00:13.756Z,30.41
2022-07-28T02:00:43.872Z,30.41
2022-07-28T02:01:13.933Z,30.43
2022-07-28T02:01:44.065Z,30.43
2022-07-28T02:02:14.014Z,30.41
2022-07-28T02:02:44.013Z,30.41
2022-07-28T02:03:14.014Z,30.41
2022-07-28T02:03:44.131Z,30.41
2022-07-28T02:04:14.676Z,30.39
2022-07-28T02:04:44.321Z,30.41
2022-07-28T02:05:14.360Z,30.43
2022-07-28T02:05:44.337Z,30.41
2022-07-28T02:06:14.377Z,30.44
2022-07-28T02:06:44.375Z,30.41
2022-07-28T02:07:14.491Z,30.41
2022-07-28T02:07:44.485Z,30.43
2022-07-28T02:08:14.605Z,30.41
2022-07-28T02:08:44.723Z,30.41
2022-07-28T02:09:14.748Z,30.40
2022-07-28T02:09:44.784Z,30.40
2022-07-28T02:10:14.822Z,30.43
2022-07-28T02:10:44.856Z,30.40
2022-07-28T02:11:14.997Z,30.41
2022-07-28T02:11:44.905Z,30.40
2022-07-28T02:12:14.936Z,30.40
2022-07-28T02:12:44.971Z,30.40
2022-07-28T02:13:15.001Z,30.39
2022-07-28T02:13:45.030Z,30.39
2022-07-28T02:14:15.521Z,30.40
2022-07-28T02:14:45.118Z,30.39
2022-07-28T02:15:15.150Z,30.36
2022-07-28T02:15:45.242Z,30.40
2022-07-28T02:16:15.351Z,30.37
2022-07-28T02:16:45.244Z,30.37
2022-07-28T02:17:15.276Z,30.37
2022-07-28T02:17:45.313Z,30.37
2022-07-28T02:18:15.336Z,30.39
2022-07-28T02:18:45.368Z,30.37
2022-07-28T02:19:15.400Z,30.37
2022-07-28T02:19:45.431Z,30.40
2022-07-28T02:20:15.463Z,30.39
2022-07-28T02:20:45.501Z,30.39
2022-07-28T02:21:15.549Z,30.37
2022-07-28T02:21:45.576Z,30.39
2022-07-28T02:22:15.609Z,30.37
2022-07-28T02:22:45.651Z,30.37
2022-07-28T02:23:15.697Z,30.37
2022-07-28T02:23:45.726Z,30.37
2022-07-28T02:24:16.394Z,30.37
2022-07-28T02:24:45.872Z,30.39
2022-07-28T02:25:15.899Z,30.36
2022-07-28T02:25:45.936Z,30.37
2022-07-28T02:26:15.995Z,30.39
2022-07-28T02:26:45.990Z,30.39
2022-07-28T02:27:16.026Z,30.39
2022-07-28T02:27:46.058Z,30.37
2022-07-28T02:28:16.090Z,30.37
2022-07-28T02:28:46.127Z,30.37
2022-07-28T02:29:33.861Z,30.40
2022-07-28T02:29:51.189Z,30.37
2022-07-28T02:30:16.256Z,30.37
2022-07-28T02:30:46.344Z,30.37
2022-07-28T02:31:16.573Z,30.37
2022-07-28T02:31:46.473Z,30.37
2022-07-28T02:32:27.339Z,30.39
2022-07-28T02:32:46.618Z,30.34
2022-07-28T02:33:16.652Z,30.39
2022-07-28T02:33:59.408Z,30.34
2022-07-28T02:34:16.959Z,30.36
2022-07-28T02:34:46.822Z,30.36
2022-07-28T02:35:16.907Z,30.36
2022-07-28T02:35:48.771Z,30.37
2022-07-28T02:36:17.049Z,30.34
2022-07-28T02:36:48.420Z,30.36
2022-07-28T02:37:17.139Z,30.34
2022-07-28T02:37:47.172Z,30.36
2022-07-28T02:38:17.202Z,30.34
2022-07-28T02:38:47.241Z,30.37
2022-07-28T02:39:17.290Z,30.36
2022-07-28T02:39:55.291Z,30.36
2022-07-28T02:40:17.356Z,30.37
2022-07-28T02:40:47.396Z,30.33
2022-07-28T02:41:17.444Z,30.33
2022-07-28T02:41:47.471Z,30.34
2022-07-28T02:42:17.513Z,30.36
2022-07-28T02:42:47.545Z,30.36
2022-07-28T02:43:17.573Z,30.33
2022-07-28T02:43:50.170Z,30.33
2022-07-28T02:44:17.880Z,30.36
2022-07-28T02:44:47.710Z,30.34
2022-07-28T02:45:17.748Z,30.33
2022-07-28T02:45:47.875Z,30.33
2022-07-28T02:46:17.968Z,30.34
2022-07-28T02:46:47.883Z,30.36
2022-07-28T02:47:17.918Z,30.33
2022-07-28T02:47:47.951Z,30.33
2022-07-28T02:48:17.985Z,30.33
2022-07-28T02:48:48.053Z,30.31
2022-07-28T02:49:18.303Z,30.34
2022-07-28T02:49:48.101Z,30.33
2022-07-28T02:50:18.141Z,30.34
2022-07-28T02:50:48.177Z,30.33
2022-07-28T02:51:18.222Z,30.33
2022-07-28T02:51:48.260Z,30.33
2022-07-28T02:52:18.288Z,30.34
2022-07-28T02:52:48.324Z,30.34
2022-07-28T02:53:18.355Z,30.34
2022-07-28T02:53:48.393Z,30.33
2022-07-28T02:54:18.417Z,30.31
2022-07-28T02:54:48.451Z,30.31
2022-07-28T02:55:18.489Z,30.34
2022-07-28T02:55:48.515Z,30.33
2022-07-28T02:56:18.576Z,30.31
2022-07-28T02:56:53.535Z,30.31
2022-07-28T02:57:18.666Z,30.30
2022-07-28T02:57:51.997Z,30.29
2022-07-28T02:58:18.749Z,30.29
2022-07-28T02:58:48.779Z,30.31
2022-07-28T02:59:18.806Z,30.30
2022-07-28T02:59:48.898Z,30.30
2022-07-28T03:00:18.895Z,30.31
2022-07-28T03:00:48.891Z,30.31
2022-07-28T03:01:18.998Z,30.30
2022-07-28T03:01:48.973Z,30.30
2022-07-28T03:02:18.990Z,30.30
2022-07-28T03:02:48.987Z,30.29
2022-07-28T03:03:18.982Z,30.30
2022-07-28T03:03:49.107Z,30.30
2022-07-28T03:04:19.101Z,30.31
2022-07-28T03:04:49.168Z,30.31
2022-07-28T03:05:19.291Z,30.31
2022-07-28T03:05:49.179Z,30.30
2022-07-28T03:06:19.176Z,30.30
2022-07-28T03:06:49.197Z,30.29
2022-07-28T03:07:19.190Z,30.31
2022-07-28T03:07:50.962Z,30.29
2022-07-28T03:08:19.234Z,30.29
2022-07-28T03:08:49.233Z,30.30
2022-07-28T03:09:19.329Z,30.29
2022-07-28T03:09:49.320Z,30.26
2022-07-28T03:10:19.354Z,30.27
2022-07-28T03:10:49.408Z,30.26
2022-07-28T03:11:19.453Z,30.29
2022-07-28T03:11:49.491Z,30.27
2022-07-28T03:12:19.601Z,30.29
2022-07-28T03:12:49.565Z,30.30
2022-07-28T03:13:19.589Z,30.29
2022-07-28T03:13:49.623Z,30.29
2022-07-28T03:14:19.660Z,30.29
2022-07-28T03:14:49.696Z,30.31
2022-07-28T03:15:19.729Z,30.30
2022-07-28T03:15:49.767Z,30.27
2022-07-28T03:16:19.886Z,30.26
2022-07-28T03:16:55.152Z,30.27
2022-07-28T03:17:19.913Z,30.27
2022-07-28T03:17:49.937Z,30.27
2022-07-28T03:18:19.971Z,30.29
2022-07-28T03:18:50.003Z,30.29
2022-07-28T03:19:20.046Z,30.27
2022-07-28T03:19:50.076Z,30.29
2022-07-28T03:20:20.134Z,30.26
2022-07-28T03:20:50.167Z,30.29
2022-07-28T03:21:20.214Z,30.27
2022-07-28T03:21:50.257Z,30.29
2022-07-28T03:22:20.279Z,30.29
2022-07-28T03:22:50.314Z,30.29
2022-07-28T03:23:20.348Z,30.27
2022-07-28T03:23:50.379Z,30.26
2022-07-28T03:24:20.409Z,30.27
2022-07-28T03:24:50.445Z,30.26
2022-07-28T03:25:20.474Z,30.30
2022-07-28T03:25:50.514Z,30.27
2022-07-28T03:26:20.566Z,30.29
2022-07-28T03:26:50.597Z,30.27
2022-07-28T03:27:20.632Z,30.26
2022-07-28T03:27:50.668Z,30.24
2022-07-28T03:28:20.702Z,30.26
2022-07-28T03:28:50.735Z,30.27
2022-07-28T03:29:20.773Z,30.27
2022-07-28T03:29:50.812Z,30.27
2022-07-28T03:30:20.841Z,30.27
2022-07-28T03:30:50.920Z,30.24
2022-07-28T03:31:21.008Z,30.24
2022-07-28T03:31:51.049Z,30.26
2022-07-28T03:32:21.081Z,30.24
2022-07-28T03:32:51.114Z,30.23
2022-07-28T03:33:21.145Z,30.26
2022-07-28T03:33:51.181Z,30.26
2022-07-28T03:34:21.216Z,30.24
2022-07-28T03:34:51.244Z,30.26
2022-07-28T03:35:21.277Z,30.26
2022-07-28T03:35:51.315Z,30.24
2022-07-28T03:36:21.383Z,30.26
2022-07-28T03:36:51.419Z,30.27
2022-07-28T03:37:21.453Z,30.24
2022-07-28T03:37:51.480Z,30.24
2022-07-28T03:38:21.510Z,30.24
2022-07-28T03:38:51.550Z,30.24
2022-07-28T03:39:21.578Z,30.26
2022-07-28T03:39:51.616Z,30.23
2022-07-28T03:40:21.642Z,30.26
2022-07-28T03:40:51.673Z,30.27
2022-07-28T03:41:21.719Z,30.23
2022-07-28T03:41:51.755Z,30.24
2022-07-28T03:42:21.787Z,30.24
2022-07-28T03:42:51.816Z,30.24
2022-07-28T03:43:21.852Z,30.24
2022-07-28T03:43:51.884Z,30.23
2022-07-28T03:44:27.649Z,30.26
2022-07-28T03:44:51.969Z,30.26
2022-07-28T03:45:22.000Z,30.22
2022-07-28T03:45:52.098Z,30.23
2022-07-28T03:46:22.235Z,30.23
2022-07-28T03:46:52.131Z,30.24
2022-07-28T03:47:22.154Z,30.24
2022-07-28T03:47:52.181Z,30.23
2022-07-28T03:48:22.218Z,30.22
2022-07-28T03:48:52.298Z,30.23
2022-07-28T03:49:22.469Z,30.22
2022-07-28T03:49:52.365Z,30.22
2022-07-28T03:50:22.398Z,30.22
2022-07-28T03:50:52.431Z,30.20
2022-07-28T03:51:22.472Z,30.23
2022-07-28T03:51:52.510Z,30.20
2022-07-28T03:52:22.539Z,30.20
2022-07-28T03:52:52.655Z,30.22
2022-07-28T03:53:22.695Z,30.22
2022-07-28T03:53:52.726Z,30.26
2022-07-28T03:54:22.751Z,30.26
2022-07-28T03:54:52.787Z,30.24
2022-07-28T03:55:22.825Z,30.24
2022-07-28T03:55:52.856Z,30.22
2022-07-28T03:56:22.886Z,30.23
2022-07-28T03:56:52.928Z,30.22
2022-07-28T03:57:22.955Z,30.22
2022-07-28T03:57:53.012Z,30.22
2022-07-28T03:58:25.984Z,30.22
2022-07-28T03:58:53.084Z,30.22
2022-07-28T03:59:23.074Z,30.20
2022-07-28T03:59:53.194Z,30.22
2022-07-28T04:00:23.187Z,30.22
2022-07-28T04:00:53.362Z,30.24
2022-07-28T04:01:23.477Z,30.20
2022-07-28T04:01:53.477Z,30.22
2022-07-28T04:02:23.521Z,30.22
2022-07-28T04:02:53.635Z,30.23
2022-07-28T04:03:42.981Z,30.22
2022-07-28T04:03:53.545Z,30.23
2022-07-28T04:04:23.539Z,30.20
2022-07-28T04:04:53.545Z,30.22
2022-07-28T04:05:23.528Z,30.19
2022-07-28T04:05:53.653Z,30.20
2022-07-28T04:06:23.646Z,30.20
2022-07-28T04:06:53.788Z,30.22
2022-07-28T04:07:23.756Z,30.22
2022-07-28T04:07:53.874Z,30.20
2022-07-28T04:08:23.988Z,30.22
2022-07-28T04:08:53.996Z,30.22
2022-07-28T04:09:24.019Z,30.20
2022-07-28T04:09:54.052Z,30.19
2022-07-28T04:10:24.092Z,30.19
2022-07-28T04:10:54.131Z,30.19
2022-07-28T04:11:24.158Z,30.19
2022-07-28T04:11:54.196Z,30.19
2022-07-28T04:12:24.230Z,30.20
2022-07-28T04:12:54.283Z,30.20
2022-07-28T04:13:24.290Z,30.22
2022-07-28T04:13:54.331Z,30.19
2022-07-28T04:14:25.125Z,30.19
2022-07-28T04:14:54.420Z,30.19
2022-07-28T04:15:24.448Z,30.18
2022-07-28T04:15:54.482Z,30.18
2022-07-28T04:16:24.628Z,30.18
2022-07-28T04:16:54.566Z,30.18
2022-07-28T04:17:24.619Z,30.20
2022-07-28T04:17:54.654Z,30.18
2022-07-28T04:18:24.682Z,30.19
2022-07-28T04:18:54.715Z,30.18
2022-07-28T04:19:24.744Z,30.20
2022-07-28T04:19:54.777Z,30.19
2022-07-28T04:20:24.807Z,30.16
2022-07-28T04:20:54.838Z,30.18
2022-07-28T04:21:24.877Z,30.16
2022-07-28T04:21:54.913Z,30.18
2022-07-28T04:22:24.941Z,30.18
2022-07-28T04:22:54.974Z,30.16
2022-07-28T04:23:25.010Z,30.18
2022-07-28T04:23:59.789Z,30.16
2022-07-28T04:24:25.091Z,30.16
2022-07-28T04:24:55.127Z,30.16
2022-07-28T04:25:25.154Z,30.16
2022-07-28T04:25:55.180Z,30.18
2022-07-28T04:26:25.213Z,30.19
2022-07-28T04:26:55.282Z,30.16
2022-07-28T04:27:25.314Z,30.16
2022-07-28T04:27:55.346Z,30.18
2022-07-28T04:28:25.383Z,30.18
2022-07-28T04:28:55.407Z,30.16
2022-07-28T04:29:27.455Z,30.18
2022-07-28T04:29:55.441Z,30.19
2022-07-28T04:30:25.585Z,30.19
2022-07-28T04:30:55.679Z,30.15
2022-07-28T04:31:25.683Z,30.16
2022-07-28T04:31:55.758Z,30.18
2022-07-28T04:32:25.829Z,30.18
2022-07-28T04:32:55.862Z,30.18
2022-07-28T04:33:25.898Z,30.16
2022-07-28T04:33:55.927Z,30.15
2022-07-28T04:34:26.000Z,30.15
2022-07-28T04:34:56.034Z,30.16
2022-07-28T04:35:26.062Z,30.18
2022-07-28T04:35:56.094Z,30.16
2022-07-28T04:36:26.129Z,30.18
2022-07-28T04:36:56.202Z,30.16
2022-07-28T04:37:26.235Z,30.16
2022-07-28T04:37:56.285Z,30.16
2022-07-28T04:38:26.318Z,30.16
2022-07-28T04:38:56.346Z,30.16
2022-07-28T04:39:26.380Z,30.15
2022-07-28T04:39:56.406Z,30.15
2022-07-28T04:40:26.435Z,30.16
2022-07-28T04:40:56.471Z,30.15
2022-07-28T04:41:26.503Z,30.15
2022-07-28T04:41:56.548Z,30.16
2022-07-28T04:42:26.578Z,30.16
2022-07-28T04:42:56.607Z,30.16
2022-07-28T04:43:26.638Z,30.18
2022-07-28T04:43:56.671Z,30.16
2022-07-28T04:44:26.710Z,30.15
2022-07-28T04:44:56.733Z,30.18
2022-07-28T04:45:26.772Z,30.16
2022-07-28T04:45:56.881Z,30.16
2022-07-28T04:46:27.002Z,30.16
2022-07-28T04:46:56.950Z,30.15
2022-07-28T04:47:26.986Z,30.13
2022-07-28T04:47:57.014Z,30.08
2022-07-28T04:48:27.042Z,29.99
2022-07-28T04:48:57.140Z,29.69
2022-07-28T04:49:27.150Z,29.87
2022-07-28T04:49:57.241Z,29.89
2022-07-28T04:50:27.277Z,29.91
2022-07-28T04:50:57.309Z,29.89
2022-07-28T04:51:27.340Z,29.88
2022-07-28T04:51:57.392Z,29.88
2022-07-28T04:52:27.474Z,29.81
2022-07-28T04:52:57.499Z,29.81
2022-07-28T04:53:27.536Z,29.79
2022-07-28T04:53:57.583Z,29.78
2022-07-28T04:54:27.639Z,29.75
2022-07-28T04:54:57.662Z,29.77
2022-07-28T04:55:27.695Z,29.74
2022-07-28T04:55:57.783Z,29.46
2022-07-28T04:56:27.798Z,29.46
2022-07-28T04:56:57.847Z,29.37
2022-07-28T04:57:27.922Z,29.44
2022-07-28T04:57:57.922Z,29.49
2022-07-28T04:58:28.010Z,29.51
2022-07-28T04:58:58.112Z,29.34
2022-07-28T04:59:28.228Z,29.39
2022-07-28T04:59:58.307Z,29.46
2022-07-28T05:00:28.308Z,29.47
2022-07-28T05:00:58.350Z,29.46
2022-07-28T05:01:28.456Z,29.40
2022-07-28T05:01:58.486Z,29.49
2022-07-28T05:02:28.483Z,29.36
2022-07-28T05:02:58.489Z,29.36
2022-07-28T05:03:32.721Z,29.25
2022-07-28T05:03:58.508Z,29.28
2022-07-28T05:04:28.660Z,29.32
2022-07-28T05:04:58.704Z,29.30
2022-07-28T05:05:28.731Z,29.32
2022-07-28T05:05:58.845Z,29.29
2022-07-28T05:06:28.842Z,29.28
2022-07-28T05:06:58.850Z,29.21
2022-07-28T05:07:28.967Z,29.05
2022-07-28T05:07:58.965Z,29.06
2022-07-28T05:08:28.964Z,28.99
2022-07-28T05:08:58.975Z,29.07
2022-07-28T05:09:29.020Z,28.74
2022-07-28T05:09:59.055Z,28.86
2022-07-28T05:10:29.088Z,28.81
2022-07-28T05:10:59.126Z,28.79
2022-07-28T05:11:29.176Z,28.86
2022-07-28T05:11:59.223Z,28.92
2022-07-28T05:12:29.253Z,28.85
2022-07-28T05:12:59.284Z,28.70
2022-07-28T05:13:34.022Z,28.86
2022-07-28T05:13:59.368Z,28.88
2022-07-28T05:14:29.399Z,28.86
2022-07-28T05:14:59.434Z,28.79
2022-07-28T05:15:29.469Z,28.84
2022-07-28T05:15:59.502Z,28.50
2022-07-28T05:16:29.570Z,28.64
2022-07-28T05:16:59.668Z,28.40
2022-07-28T05:17:29.694Z,28.51
2022-07-28T05:17:59.728Z,28.60
2022-07-28T05:18:29.769Z,28.48
2022-07-28T05:18:59.789Z,28.61
2022-07-28T05:19:29.824Z,28.37
2022-07-28T05:19:59.867Z,28.46
2022-07-28T05:20:29.926Z,28.27
2022-07-28T05:20:59.950Z,28.46
2022-07-28T05:21:29.986Z,28.54
2022-07-28T05:22:00.018Z,28.40
2022-07-28T05:22:30.052Z,28.43
2022-07-28T05:23:00.100Z,28.50
2022-07-28T05:23:30.117Z,28.36
2022-07-28T05:24:00.155Z,28.41
2022-07-28T05:24:30.188Z,28.30
2022-07-28T05:25:00.232Z,28.37
2022-07-28T05:25:30.263Z,28.33
2022-07-28T05:26:00.297Z,28.44
2022-07-28T05:26:30.332Z,28.48
2022-07-28T05:27:00.368Z,28.34
2022-07-28T05:27:30.406Z,28.30
2022-07-28T05:28:00.437Z,28.46
2022-07-28T05:28:30.470Z,28.41
2022-07-28T05:29:00.505Z,28.51
2022-07-28T05:29:47.452Z,28.55
2022-07-28T05:30:00.607Z,28.55
2022-07-28T05:30:30.633Z,28.57
2022-07-28T05:31:00.671Z,28.47
2022-07-28T05:31:30.865Z,28.37
2022-07-28T05:32:04.055Z,28.19
2022-07-28T05:32:30.834Z,28.16
2022-07-28T05:33:00.866Z,28.23
2022-07-28T05:33:32.128Z,27.96
2022-07-28T05:34:00.951Z,27.98
2022-07-28T05:34:30.990Z,27.91
2022-07-28T05:35:01.017Z,27.89
2022-07-28T05:35:31.050Z,27.89
2022-07-28T05:36:01.099Z,27.87
2022-07-28T05:36:31.127Z,27.69
2022-07-28T05:37:01.162Z,27.62
2022-07-28T05:37:31.198Z,27.41
2022-07-28T05:38:01.230Z,27.50
2022-07-28T05:38:31.254Z,27.65
2022-07-28T05:39:01.293Z,27.68
2022-07-28T05:39:31.322Z,27.51
2022-07-28T05:40:01.351Z,27.44
2022-07-28T05:40:31.386Z,27.54
2022-07-28T05:41:01.418Z,27.50
2022-07-28T05:41:31.446Z,27.56
2022-07-28T05:42:01.488Z,27.40
2022-07-28T05:42:31.522Z,27.50
2022-07-28T05:43:01.561Z,27.57
2022-07-28T05:43:31.586Z,27.33
2022-07-28T05:44:01.621Z,27.32
2022-07-28T05:44:35.905Z,27.36
2022-07-28T05:45:01.704Z,27.23
2022-07-28T05:45:31.776Z,27.37
2022-07-28T05:46:01.877Z,27.36
2022-07-28T05:46:31.897Z,27.39
2022-07-28T05:47:01.946Z,27.54
2022-07-28T05:47:31.977Z,27.61
2022-07-28T05:48:01.985Z,27.51
2022-07-28T05:48:32.021Z,27.22
2022-07-28T05:49:02.130Z,26.55
2022-07-28T05:49:32.151Z,26.87
2022-07-28T05:50:02.185Z,26.71
2022-07-28T05:50:32.216Z,26.75
2022-07-28T05:51:02.245Z,26.92
2022-07-28T05:51:32.272Z,26.95
2022-07-28T05:52:02.302Z,26.99
2022-07-28T05:52:32.336Z,26.98
2022-07-28T05:53:02.380Z,26.99
2022-07-28T05:53:32.415Z,27.16
2022-07-28T05:54:02.442Z,27.23
2022-07-28T05:54:32.478Z,27.17
2022-07-28T05:55:02.508Z,27.12
2022-07-28T05:55:32.543Z,27.23
2022-07-28T05:56:02.573Z,26.50
2022-07-28T05:56:32.606Z,26.81
2022-07-28T05:57:02.642Z,27.03
2022-07-28T05:57:32.674Z,26.92
2022-07-28T05:58:02.721Z,26.99
2022-07-28T05:58:32.757Z,26.12
2022-07-28T05:59:02.769Z,26.30
2022-07-28T05:59:32.768Z,26.43
2022-07-28T06:00:02.773Z,26.05
2022-07-28T06:00:32.887Z,26.34
2022-07-28T06:01:03.023Z,26.50
2022-07-28T06:01:33.069Z,26.43
2022-07-28T06:02:03.124Z,26.57
2022-07-28T06:02:33.244Z,26.70
2022-07-28T06:03:03.125Z,26.58
2022-07-28T06:03:35.910Z,26.61
2022-07-28T06:04:26.168Z,26.44
2022-07-28T06:04:33.544Z,26.39
2022-07-28T06:05:03.184Z,26.37
2022-07-28T06:05:33.180Z,26.19
2022-07-28T06:06:16.003Z,26.43
2022-07-28T06:06:33.196Z,26.43
2022-07-28T06:07:03.193Z,26.55
2022-07-28T06:07:43.093Z,26.71
2022-07-28T06:08:03.214Z,26.60
2022-07-28T06:08:33.209Z,26.65
2022-07-28T06:09:03.230Z,26.61
2022-07-28T06:09:33.260Z,26.57
2022-07-28T06:10:03.296Z,26.84
2022-07-28T06:10:33.335Z,26.60
2022-07-28T06:11:03.363Z,26.74
2022-07-28T06:11:33.395Z,26.64
2022-07-28T06:12:03.438Z,26.77
2022-07-28T06:12:33.470Z,26.72
2022-07-28T06:13:03.514Z,26.74
2022-07-28T06:13:33.550Z,26.89
2022-07-28T06:14:03.587Z,26.95
2022-07-28T06:14:33.629Z,26.84
2022-07-28T06:15:03.661Z,26.68
2022-07-28T06:15:33.694Z,26.79
2022-07-28T06:16:03.768Z,26.92
2022-07-28T06:16:33.910Z,27.07
2022-07-28T06:17:04.028Z,26.89
2022-07-28T06:17:33.996Z,26.99
2022-07-28T06:18:04.027Z,26.95
2022-07-28T06:18:34.069Z,26.75
2022-07-28T06:19:04.102Z,27.02
2022-07-28T06:19:34.131Z,26.85
2022-07-28T06:20:04.168Z,27.02
2022-07-28T06:20:34.199Z,26.92
2022-07-28T06:21:04.233Z,27.02
2022-07-28T06:21:34.269Z,26.79
2022-07-28T06:22:04.302Z,27.05
2022-07-28T06:22:34.341Z,27.06
2022-07-28T06:23:04.382Z,27.29
2022-07-28T06:23:34.420Z,27.41
2022-07-28T06:24:04.449Z,27.51
2022-07-28T06:24:34.482Z,27.37
2022-07-28T06:25:04.515Z,27.46
2022-07-28T06:25:34.548Z,27.22
2022-07-28T06:26:04.581Z,27.41
2022-07-28T06:26:34.616Z,27.56